Time;durP1;ratioP1;P1;durP2;ratioP2;P2;SDS_P1;SDS_P2;PMS_P1;PMS_P2;Temp;Humidity;BMP_temperature;BMP_pressure;BME280_temperature;BME280_humidity;BME280_pressure;Samples;Min_cycle;Max_cycle;Signal;HPM_P1;HPM_P2
2023/03/16 00:00:46;;;;;;;;;11.00;8.00;;;;;;;;5006581;28;13353;-75
2023/03/16 00:03:17;;;;;;;;;5.75;5.75;;;;;;;;5005336;28;13329;-75
2023/03/16 00:05:45;;;;;;;;;8.20;8.20;;;;;;;;5006578;28;13469;-75
2023/03/16 00:08:10;;;;;;;;;10.33;8.00;;;;;;;;5006515;28;13345;-75
2023/03/16 00:10:35;;;;;;;;;8.00;7.00;;;;;;;;5006430;28;14111;-75
2023/03/16 00:13:01;;;;;;;;;7.33;7.33;;;;;;;;5006550;28;13422;-75
2023/03/16 00:15:27;;;;;;;;;12.25;8.25;;;;;;;;5006383;28;13204;-74
2023/03/16 00:17:53;;;;;;;;;6.50;6.00;;;;;;;;4972743;28;13409;-75
2023/03/16 00:20:19;;;;;;;;;11.50;10.00;;;;;;;;5006631;28;13347;-75
2023/03/16 00:22:45;;;;;;;;;8.25;8.00;;;;;;;;5006366;28;13482;-75
2023/03/16 00:25:13;;;;;;;;;6.00;5.50;;;;;;;;4988654;28;13336;-75
2023/03/16 00:27:38;;;;;;;;;10.40;6.80;;;;;;;;5006410;28;13345;-75
2023/03/16 00:30:04;;;;;;;;;13.25;11.25;;;;;;;;5007153;28;13312;-76
2023/03/16 00:32:31;;;;;;;;;8.00;8.00;;;;;;;;5005102;28;13374;-75
2023/03/16 00:34:56;;;;;;;;;9.40;7.20;;;;;;;;5006490;28;14054;-75
2023/03/16 00:37:22;;;;;;;;;8.20;7.20;;;;;;;;5006401;28;13302;-76
2023/03/16 00:39:48;;;;;;;;;12.00;9.00;;;;;;;;5006202;28;14041;-75
2023/03/16 00:42:14;;;;;;;;;8.75;6.00;;;;;;;;5005981;28;13505;-75
2023/03/16 00:44:42;;;;;;;;;8.20;6.40;;;;;;;;5006306;28;13296;-76
2023/03/16 00:47:08;;;;;;;;;8.50;5.00;;;;;;;;5006026;28;13326;-75
2023/03/16 00:49:34;;;;;;;;;8.25;7.50;;;;;;;;5006240;28;13332;-76
2023/03/16 00:52:03;;;;;;;;;9.60;6.80;;;;;;;;5006068;28;13761;-76
2023/03/16 00:54:31;;;;;;;;;9.00;5.25;;;;;;;;5006179;28;13401;-76
2023/03/16 00:56:56;;;;;;;;;6.00;6.00;;;;;;;;5006378;28;13517;-75
2023/03/16 00:59:22;;;;;;;;;6.00;6.00;;;;;;;;5006200;28;13482;-75
2023/03/16 01:01:47;;;;;;;;;7.00;7.00;;;;;;;;5005993;28;13540;-75
2023/03/16 01:04:12;;;;;;;;;11.00;6.67;;;;;;;;5005886;28;13343;-74
2023/03/16 01:06:38;;;;;;;;;6.50;6.50;;;;;;;;5005970;28;13333;-75
2023/03/16 01:09:04;;;;;;;;;4.75;4.75;;;;;;;;5005818;28;14050;-74
2023/03/16 01:11:32;;;;;;;;;6.25;4.00;;;;;;;;5005952;28;13403;-75
2023/03/16 01:13:58;;;;;;;;;6.00;5.00;;;;;;;;5006072;28;13436;-75
2023/03/16 01:16:23;;;;;;;;;7.00;7.00;;;;;;;;5006025;28;13273;-74
2023/03/16 01:18:51;;;;;;;;;5.00;5.00;;;;;;;;5005969;28;13237;-74
2023/03/16 01:21:16;;;;;;;;;5.00;5.00;;;;;;;;5005877;28;13325;-74
2023/03/16 01:23:43;;;;;;;;;5.25;5.25;;;;;;;;5006104;28;13344;-74
2023/03/16 01:26:08;;;;;;;;;8.00;5.20;;;;;;;;5005791;28;13945;-74
2023/03/16 01:28:34;;;;;;;;;5.75;5.00;;;;;;;;5005997;28;13411;-73
2023/03/16 01:31:04;;;;;;;;;7.50;7.50;;;;;;;;5006087;28;14040;-75
2023/03/16 01:33:29;;;;;;;;;5.20;5.20;;;;;;;;5006437;28;13572;-74
2023/03/16 01:35:56;;;;;;;;;8.00;6.00;;;;;;;;4991784;28;13487;-75
2023/03/16 01:38:21;;;;;;;;;2.00;2.00;;;;;;;;5009591;28;13321;-75
2023/03/16 01:40:50;;;;;;;;;3.00;3.00;;;;;;;;5009212;28;13328;-74
2023/03/16 01:43:16;;;;;;;;;5.40;4.00;;;;;;;;4991402;28;13379;-74
2023/03/16 01:46:00;;;;;;;;;3.20;3.20;;;;;;;;5009189;28;13334;-74
2023/03/16 01:48:26;;;;;;;;;4.00;4.00;;;;;;;;5008965;28;13577;-75
2023/03/16 01:50:52;;;;;;;;;5.00;5.00;;;;;;;;5009021;28;13321;-74
2023/03/16 01:53:18;;;;;;;;;7.40;4.60;;;;;;;;5009182;28;13334;-74
2023/03/16 01:55:43;;;;;;;;;4.25;4.25;;;;;;;;4991593;28;13349;-74
2023/03/16 01:58:10;;;;;;;;;5.00;5.00;;;;;;;;5008970;28;13354;-74
2023/03/16 02:00:35;;;;;;;;;10.60;8.00;;;;;;;;5008925;28;13326;-74
2023/03/16 02:03:06;;;;;;;;;5.00;5.00;;;;;;;;5008857;28;13571;-75
2023/03/16 02:05:32;;;;;;;;;8.00;5.00;;;;;;;;5008735;28;13346;-75
2023/03/16 02:07:59;;;;;;;;;5.50;5.50;;;;;;;;5008821;28;13332;-74
2023/03/16 02:10:26;;;;;;;;;8.80;7.80;;;;;;;;5008954;28;13613;-73
2023/03/16 02:12:52;;;;;;;;;5.40;5.40;;;;;;;;5008663;28;13407;-74
2023/03/16 02:15:17;;;;;;;;;6.60;5.40;;;;;;;;5008717;28;13314;-74
2023/03/16 02:17:44;;;;;;;;;4.00;4.00;;;;;;;;5009036;28;14104;-74
2023/03/16 02:20:23;;;;;;;;;5.00;4.50;;;;;;;;5008673;28;13304;-74
2023/03/16 02:22:53;;;;;;;;;5.00;5.00;;;;;;;;5008908;28;13412;-74
2023/03/16 02:25:19;;;;;;;;;7.40;4.40;;;;;;;;5008435;28;13519;-74
2023/03/16 02:27:44;;;;;;;;;4.00;4.00;;;;;;;;5008691;28;13328;-74
2023/03/16 02:30:14;;;;;;;;;7.25;4.00;;;;;;;;5008810;28;13400;-75
2023/03/16 02:32:40;;;;;;;;;6.50;4.75;;;;;;;;5008496;28;13356;-75
2023/03/16 02:35:06;;;;;;;;;2.00;2.00;;;;;;;;5008330;28;14078;-74
2023/03/16 02:37:34;;;;;;;;;8.00;4.00;;;;;;;;5008638;28;13336;-74
2023/03/16 02:40:00;;;;;;;;;5.00;3.60;;;;;;;;4990556;28;13327;-74
2023/03/16 02:42:27;;;;;;;;;4.00;4.00;;;;;;;;5008594;28;13307;-74
2023/03/16 02:44:55;;;;;;;;;5.00;4.80;;;;;;;;5007946;28;13344;-75
2023/03/16 02:47:29;;;;;;;;;4.00;4.00;;;;;;;;4990482;28;13343;-74
2023/03/16 02:49:55;;;;;;;;;4.25;4.25;;;;;;;;5008202;28;13366;-74
2023/03/16 02:52:20;;;;;;;;;5.00;5.00;;;;;;;;5008157;28;13388;-75
2023/03/16 02:54:45;;;;;;;;;4.00;4.00;;;;;;;;5008013;28;13363;-74
2023/03/16 02:57:11;;;;;;;;;4.33;4.00;;;;;;;;4990429;28;13417;-74
2023/03/16 02:59:36;;;;;;;;;4.25;4.25;;;;;;;;5007383;28;13334;-74
2023/03/16 03:02:01;;;;;;;;;7.00;4.00;;;;;;;;5007893;28;13314;-74
2023/03/16 03:04:26;;;;;;;;;5.00;4.25;;;;;;;;5007788;28;13326;-74
2023/03/16 03:06:52;;;;;;;;;4.00;4.00;;;;;;;;5007802;28;13339;-73
2023/03/16 03:09:18;;;;;;;;;7.00;4.33;;;;;;;;5007735;28;13403;-73
2023/03/16 03:11:43;;;;;;;;;5.80;4.00;;;;;;;;5006106;28;14133;-73
2023/03/16 03:14:08;;;;;;;;;9.00;5.00;;;;;;;;5007513;28;13981;-75
2023/03/16 03:16:34;;;;;;;;;6.33;4.67;;;;;;;;5007482;28;13311;-74
2023/03/16 03:18:59;;;;;;;;;4.67;2.00;;;;;;;;4989892;28;13315;-73
2023/03/16 03:21:24;;;;;;;;;3.50;2.00;;;;;;;;5007193;28;14052;-73
2023/03/16 03:23:50;;;;;;;;;5.00;4.00;;;;;;;;5007663;28;13439;-74
2023/03/16 03:26:15;;;;;;;;;5.75;5.00;;;;;;;;5007141;28;13544;-74
2023/03/16 03:28:41;;;;;;;;;2.50;2.50;;;;;;;;5007208;28;13477;-74
2023/03/16 03:31:07;;;;;;;;;8.00;5.00;;;;;;;;5007472;28;13575;-73
2023/03/16 03:33:35;;;;;;;;;4.00;4.00;;;;;;;;5007351;28;13436;-74
2023/03/16 03:36:00;;;;;;;;;7.00;7.00;;;;;;;;5007067;28;13466;-74
2023/03/16 03:38:26;;;;;;;;;7.00;7.00;;;;;;;;5007216;28;13468;-74
2023/03/16 03:40:52;;;;;;;;;7.00;5.00;;;;;;;;5007297;28;14066;-74
2023/03/16 03:43:18;;;;;;;;;5.00;5.00;;;;;;;;5007178;28;13529;-75
2023/03/16 03:45:43;;;;;;;;;7.00;5.00;;;;;;;;5007314;28;13634;-74
2023/03/16 03:48:09;;;;;;;;;5.00;4.00;;;;;;;;5007097;28;14255;-74
2023/03/16 03:50:35;;;;;;;;;4.00;4.00;;;;;;;;5007116;28;13426;-74
2023/03/16 03:53:00;;;;;;;;;7.00;4.25;;;;;;;;5007112;28;13493;-74
2023/03/16 03:55:25;;;;;;;;;2.00;2.00;;;;;;;;5007042;28;14103;-75
2023/03/16 03:57:50;;;;;;;;;2.00;2.00;;;;;;;;5006414;28;13423;-75
2023/03/16 04:00:19;;;;;;;;;4.00;4.00;;;;;;;;5007122;28;13403;-76
2023/03/16 04:02:45;;;;;;;;;2.80;2.00;;;;;;;;5005565;28;14182;-74
2023/03/16 04:05:10;;;;;;;;;6.50;6.50;;;;;;;;5006980;28;13533;-74
2023/03/16 04:07:35;;;;;;;;;2.00;2.00;;;;;;;;5006778;28;13550;-74
2023/03/16 04:10:00;;;;;;;;;4.00;4.00;;;;;;;;5005482;28;14092;-74
2023/03/16 04:12:26;;;;;;;;;4.00;2.00;;;;;;;;5006347;28;14084;-74
2023/03/16 04:14:51;;;;;;;;;5.00;3.50;;;;;;;;5006522;28;13427;-75
2023/03/16 04:17:16;;;;;;;;;3.67;3.67;;;;;;;;5006465;28;13445;-74
2023/03/16 04:19:42;;;;;;;;;3.67;3.00;;;;;;;;5006382;28;13400;-75
2023/03/16 04:22:07;;;;;;;;;4.33;4.33;;;;;;;;5006669;28;13406;-74
2023/03/16 04:24:33;;;;;;;;;2.25;2.25;;;;;;;;5006545;28;13437;-75
2023/03/16 04:26:58;;;;;;;;;1.75;1.75;;;;;;;;5006192;28;13413;-75
2023/03/16 04:29:24;;;;;;;;;3.80;3.00;;;;;;;;5006331;28;13442;-75
2023/03/16 04:31:49;;;;;;;;;4.00;3.00;;;;;;;;5004822;28;13546;-75
2023/03/16 04:34:15;;;;;;;;;2.75;2.75;;;;;;;;5006251;28;14154;-75
2023/03/16 04:36:40;;;;;;;;;3.00;3.00;;;;;;;;5006096;28;13463;-75
2023/03/16 04:39:06;;;;;;;;;6.00;5.00;;;;;;;;5005927;28;13397;-75
2023/03/16 04:41:31;;;;;;;;;3.50;3.00;;;;;;;;5005934;28;13413;-75
2023/03/16 04:43:57;;;;;;;;;4.00;4.00;;;;;;;;5006189;28;13688;-74
2023/03/16 04:46:23;;;;;;;;;9.00;5.00;;;;;;;;5004442;28;14189;-74
2023/03/16 04:48:48;;;;;;;;;5.00;5.00;;;;;;;;5005926;28;14169;-75
2023/03/16 04:51:14;;;;;;;;;3.00;3.00;;;;;;;;5005740;28;13465;-74
2023/03/16 04:53:39;;;;;;;;;7.00;5.00;;;;;;;;5006102;28;13513;-74
2023/03/16 04:56:06;;;;;;;;;5.75;4.50;;;;;;;;5005947;28;14923;-75
2023/03/16 04:58:31;;;;;;;;;5.25;2.75;;;;;;;;5004338;28;13421;-75
2023/03/16 05:00:56;;;;;;;;;5.00;5.00;;;;;;;;5005692;28;13436;-75
2023/03/16 05:03:22;;;;;;;;;3.00;3.00;;;;;;;;5006061;28;13657;-73
2023/03/16 05:05:48;;;;;;;;;5.25;5.25;;;;;;;;5006072;28;14200;-75
2023/03/16 05:08:14;;;;;;;;;6.25;4.50;;;;;;;;5006152;28;13616;-75
2023/03/16 05:10:39;;;;;;;;;5.33;3.67;;;;;;;;4992255;28;13444;-75
2023/03/16 05:13:04;;;;;;;;;6.75;5.50;;;;;;;;5006596;28;13410;-75
2023/03/16 05:15:30;;;;;;;;;5.50;2.25;;;;;;;;4999927;28;13535;-74
2023/03/16 05:17:56;;;;;;;;;3.00;3.00;;;;;;;;4996724;28;14223;-77
2023/03/16 05:20:21;;;;;;;;;4.50;2.75;;;;;;;;5009995;28;13431;-72
2023/03/16 05:22:47;;;;;;;;;1.50;1.50;;;;;;;;5009830;28;13436;-72
2023/03/16 05:25:16;;;;;;;;;3.50;2.75;;;;;;;;5008199;28;13469;-75
2023/03/16 05:27:42;;;;;;;;;4.20;4.20;;;;;;;;5009042;28;13519;-74
2023/03/16 05:30:09;;;;;;;;;5.50;3.00;;;;;;;;4991623;28;13456;-75
2023/03/16 05:32:34;;;;;;;;;3.40;3.40;;;;;;;;5007985;28;14161;-77
2023/03/16 05:34:59;;;;;;;;;5.00;3.67;;;;;;;;5009093;28;14239;-74
2023/03/16 05:37:24;;;;;;;;;4.00;3.00;;;;;;;;5005879;28;13507;-76
2023/03/16 05:39:50;;;;;;;;;5.50;4.00;;;;;;;;5009003;28;14117;-75
2023/03/16 05:42:15;;;;;;;;;6.00;3.00;;;;;;;;5009367;28;13434;-75
2023/03/16 05:44:40;;;;;;;;;7.00;7.00;;;;;;;;5009463;28;14176;-76
2023/03/16 05:47:05;;;;;;;;;6.00;4.50;;;;;;;;5009054;28;14253;-77
2023/03/16 05:49:31;;;;;;;;;6.33;6.33;;;;;;;;5009451;28;13417;-75
2023/03/16 05:51:56;;;;;;;;;5.50;5.50;;;;;;;;5003041;28;13444;-73
2023/03/16 05:54:21;;;;;;;;;6.00;5.00;;;;;;;;4989505;28;13425;-76
2023/03/16 05:56:46;;;;;;;;;3.50;3.50;;;;;;;;4989184;28;13472;-71
2023/03/16 05:59:12;;;;;;;;;5.00;3.00;;;;;;;;4989309;28;13416;-72
2023/03/16 06:01:38;;;;;;;;;2.33;2.33;;;;;;;;4972215;28;13400;-74
2023/03/16 06:04:04;;;;;;;;;6.25;3.50;;;;;;;;4989934;28;13509;-73
2023/03/16 06:06:29;;;;;;;;;5.33;5.33;;;;;;;;4989567;28;13432;-74
2023/03/16 06:08:55;;;;;;;;;5.33;3.67;;;;;;;;5002010;28;13430;-73
2023/03/16 06:11:20;;;;;;;;;3.00;3.00;;;;;;;;5009211;28;13472;-73
2023/03/16 06:13:45;;;;;;;;;5.33;3.00;;;;;;;;5008381;28;13614;-73
2023/03/16 06:16:13;;;;;;;;;5.00;5.00;;;;;;;;4999659;28;14578;-72
2023/03/16 06:18:38;;;;;;;;;3.00;3.00;;;;;;;;4996390;28;13532;-72
2023/03/16 06:21:03;;;;;;;;;3.00;3.00;;;;;;;;5000854;28;13493;-73
2023/03/16 06:23:29;;;;;;;;;3.50;3.00;;;;;;;;5008825;28;13356;-72
2023/03/16 06:25:55;;;;;;;;;2.00;2.00;;;;;;;;4990542;28;13318;-72
2023/03/16 06:28:21;;;;;;;;;6.00;3.50;;;;;;;;4990930;28;13375;-73
2023/03/16 06:30:46;;;;;;;;;2.40;2.40;;;;;;;;5007461;28;13362;-72
2023/03/16 06:33:11;;;;;;;;;3.00;3.00;;;;;;;;5008276;28;13329;-71
2023/03/16 06:35:36;;;;;;;;;6.25;5.25;;;;;;;;4995617;28;13367;-71
2023/03/16 06:38:02;;;;;;;;;3.50;3.00;;;;;;;;4991499;28;14220;-69
2023/03/16 06:40:27;;;;;;;;;7.25;7.25;;;;;;;;5006753;28;13474;-70
2023/03/16 20:23:54;;;;;;;;;;;;;;;;;;5102296;22;13477;-71
2023/03/16 20:26:19;;;;;;;;;;;;;;;;;;5024022;28;11448;-69
2023/03/16 20:28:45;;;;;;;;;;;;;;;;;;5064303;28;7520;-70
2023/03/16 20:31:10;;;;;;;;;;;;;;;;;;5062630;28;7549;-70
2023/03/16 20:33:35;;;;;;;;;;;;;;;;;;5063030;28;7521;-69
2023/03/16 20:36:01;;;;;;;;;;;;;;;;;;5062068;28;7556;-68
2023/03/16 20:38:26;;;;;;;;;;;;;;;;;;5066967;28;7537;-70
2023/03/16 20:40:51;;;;;;;;;;;;;;;;;;5064300;28;7533;-69
2023/03/16 20:43:17;;;;;;;;;;;;;;;;;;5064381;28;7529;-69
2023/03/16 20:45:42;;;;;;;;;;;;;;;;;;5064425;28;7537;-70
2023/03/16 20:48:07;;;;;;;;;;;;;;;;;;5064426;28;7529;-69
2023/03/16 20:50:33;;;;;;;;;;;;;;;;;;5060088;28;7591;-69
2023/03/16 20:52:58;;;;;;;;;;;;;;;;;;5052866;28;7976;-70
2023/03/16 20:55:23;;;;;;;;;;;;;;;;;;5052509;28;7529;-70
2023/03/16 20:57:48;;;;;;;;;;;;;;;;;;5053726;28;7644;-69
2023/03/16 21:00:13;;;;;;;;;;;;;;;;;;5052252;28;8104;-69
2023/03/16 21:02:38;;;;;;;;;;;;;;;;;;5051241;28;9155;-69
2023/03/16 21:05:03;;;;;;;;;;;;;;;;;;5004137;28;13970;-69
2023/03/16 21:07:29;;;;;;;;;;;;;;;;;;4982108;28;14061;-68
2023/03/16 21:09:54;;;;;;;;;;;;;;;;;;5001050;28;13741;-68
2023/03/16 21:12:22;;;;;;;;;10.75;9.75;;;;;;;;5050167;28;13756;-70
2023/03/16 21:14:47;;;;;;;;;10.00;10.00;;;;;;;;5051047;28;13533;-68
2023/03/16 21:17:25;;;;;;;;;6.50;6.00;;;;;;;;5049121;28;13542;-68
2023/03/16 21:19:51;;;;;;;;;10.40;10.00;;;;;;;;5051009;28;13532;-69
2023/03/16 21:22:30;;;;;;;;;9.75;9.75;;;;;;;;5049344;28;13529;-69
2023/03/16 21:24:56;;;;;;;;;14.00;10.25;;;;;;;;5051351;28;13554;-70
2023/03/16 21:27:24;;;;;;;;;14.00;11.00;;;;;;;;5049181;28;14376;-69
2023/03/16 21:29:52;;;;;;;;;10.00;10.00;;;;;;;;5048949;28;13570;-69
2023/03/16 21:32:18;;;;;;;;;11.00;10.00;;;;;;;;5047773;28;13634;-69
2023/03/16 21:34:44;;;;;;;;;11.00;11.00;;;;;;;;5030992;28;13463;-69
2023/03/16 21:37:16;;;;;;;;;13.25;11.00;;;;;;;;5027851;28;13551;-68
2023/03/16 21:39:42;;;;;;;;;14.50;10.00;;;;;;;;5046194;28;14351;-69
2023/03/16 21:42:07;;;;;;;;;9.75;9.75;;;;;;;;5047642;28;14193;-69
2023/03/16 21:44:32;;;;;;;;;;;;;;;;;;5027821;28;13571;-69
2023/03/16 21:46:58;;;;;;;;;6.00;6.00;;;;;;;;5024839;28;14669;-68
2023/03/16 21:49:23;;;;;;;;;;;;;;;;;;4966639;28;13632;-67
2023/03/16 21:51:48;;;;;;;;;;;;;;;;;;5005427;28;13505;-67
2023/03/16 21:54:14;;;;;;;;;5.00;5.00;;;;;;;;5021800;28;13670;-67
2023/03/16 21:56:40;;;;;;;;;8.00;5.00;;;;;;;;5042301;28;13470;-66
2023/03/16 21:59:06;;;;;;;;;10.00;6.00;;;;;;;;5047531;28;13471;-65
2023/03/16 22:01:32;;;;;;;;;5.40;5.20;;;;;;;;5045534;28;13467;-66
2023/03/16 22:04:00;;;;;;;;;5.00;4.80;;;;;;;;5046192;28;13496;-66
2023/03/16 22:06:26;;;;;;;;;;;;;;;;;;5049262;28;13444;-66
2023/03/16 22:08:52;;;;;;;;;;;;;;;;;;5049322;28;7545;-68
2023/03/16 22:11:17;;;;;;;;;;;;;;;;;;5049632;28;7535;-66
2023/03/16 22:13:42;;;;;;;;;;;;;;;;;;4993754;28;10022;-67
2023/03/16 22:16:07;;;;;;;;;;;;;;;;;;5054826;28;8498;-66
2023/03/16 22:18:32;;;;;;;;;;;;;;;;;;5048956;28;9125;-66
2023/03/16 22:20:57;;;;;;;;;;;;;;;;;;5048885;28;8733;-66
2023/03/16 22:23:23;;;;;;;;;;;;;;;;;;5045394;28;12013;-67
2023/03/16 22:25:48;;;;;;;;;;;;;;;;;;5035945;28;14017;-66
2023/03/16 22:28:13;;;;;;;;;;;;;;;;;;5046239;28;13939;-66
2023/03/16 22:30:38;;;;;;;;;;;;;;;;;;5049213;28;7541;-65
2023/03/16 22:33:03;;;;;;;;;;;;;;;;;;5048969;28;7536;-66
2023/03/16 22:35:28;;;;;;;;;;;;;;;;;;5048821;28;7517;-66
2023/03/16 22:37:54;;;;;;;;;;;;;;;;;;5049137;28;7535;-66
2023/03/16 22:40:19;;;;;;;;;;;;;;;;;;5047440;28;7527;-66
2023/03/16 22:42:44;;;;;;;;;;;;;;;;;;5049115;28;7537;-67
2023/03/16 22:45:13;;;;;;;;;;;;;;;;;;5046842;28;7551;-66
2023/03/16 22:47:38;;;;;;;;;;;;;;;;;;5048670;28;7529;-66
2023/03/16 22:50:03;;;;;;;;;;;;;;;;;;5048731;28;7529;-67
2023/03/16 22:52:28;;;;;;;;;;;;;;;;;;5042927;28;7521;-68
2023/03/16 22:54:53;;;;;;;;;;;;;;;;;;5028954;28;7529;-67
2023/03/16 22:57:18;;;;;;;;;;;;;;;;;;5029041;28;7585;-67
2023/03/16 22:59:44;;;;;;;;;;;;;;;;;;5028853;28;7529;-67
2023/03/16 23:02:09;;;;;;;;;;;;;;;;;;5027196;28;7568;-67
2023/03/16 23:04:34;;;;;;;;;;;;;;;;;;5029113;28;7603;-67
2023/03/16 23:06:59;;;;;;;;;;;;;;;;;;5028879;28;7541;-67
2023/03/16 23:09:25;;;;;;;;;;;;;;;;;;5028913;28;7587;-67
2023/03/16 23:11:50;;;;;;;;;;;;;;;;;;5028668;28;7612;-66
2023/03/16 23:14:15;;;;;;;;;;;;;;;;;;5028374;28;7528;-67
2023/03/16 23:16:40;;;;;;;;;;;;;;;;;;5028804;28;7595;-67
2023/03/16 23:19:06;;;;;;;;;;;;;;;;;;5028733;28;8044;-67
2023/03/16 23:21:32;;;;;;;;;;;;;;;;;;5028296;28;7541;-67
2023/03/16 23:23:57;;;;;;;;;;;;;;;;;;5028717;28;7624;-66
2023/03/16 23:26:22;;;;;;;;;;;;;;;;;;5026925;28;10186;-66
2023/03/16 23:28:47;;;;;;;;;;;;;;;;;;5026823;28;8376;-67
2023/03/16 23:31:12;;;;;;;;;;;;;;;;;;5027865;28;7602;-67
2023/03/16 23:33:38;;;;;;;;;;;;;;;;;;5027111;28;8032;-67
2023/03/16 23:36:03;;;;;;;;;;;;;;;;;;5027201;28;7559;-67
2023/03/16 23:38:28;;;;;;;;;;;;;;;;;;5027327;28;7517;-68
2023/03/16 23:40:53;;;;;;;;;;;;;;;;;;5027096;28;7525;-67
2023/03/16 23:43:18;;;;;;;;;;;;;;;;;;5026573;28;7632;-66
2023/03/16 23:45:44;;;;;;;;;;;;;;;;;;5028141;28;7527;-67
2023/03/16 23:48:09;;;;;;;;;;;;;;;;;;5028059;28;7597;-67
2023/03/16 23:50:34;;;;;;;;;;;;;;;;;;5027967;28;7529;-67
2023/03/16 23:53:00;;;;;;;;;;;;;;;;;;5027858;28;7548;-67
2023/03/16 23:55:25;;;;;;;;;;;;;;;;;;5028062;28;7556;-67
2023/03/16 23:57:50;;;;;;;;;;;;;;;;;;5027698;28;7529;-67
